Latest Weather Observations for Laverton

IDV60901

Issued at 8:41 am EST Monday 27 April 2015 (issued every 10 minutes, with the page automatically refreshed every 10 minutes)

About weather observations | Map of Melbourne area stations | Latest observations for Melbourne area | Other Formats
Station Details ID: 087031 Name: LAVERTON RAAF Lat: -37.86 Lon: 144.76 Height: 20.1 m
Data from the previous 72 hours. | See also: Recent months at Laverton
Date/Time
EST
Tmp

°C
App
Tmp
°C
Dew
Point
°C
Rel
Hum
%
Delta-T

°C
Wind Press
QNH
hPa
Press
MSL
hPa
Rain
since
9 am
mm
Dir
 
Spd
km/h
Gust
km/h
Spd
kts
Gust
kts
27/08:30am 11.1 7.2 8.8 86 1.1 W 19 24 10 13 1023.1 1023.1 0.2
27/08:00am 11.0 7.5 8.9 87 1.0 W 17 22 9 12 1023.0 1023.0 0.2
27/07:30am 10.5 7.0 8.8 89 0.8 WSW 17 24 9 13 1022.7 1022.7 0.2
27/07:00am 10.2 6.3 8.5 89 0.8 W 19 24 10 13 1022.2 1022.2 0.2
27/06:30am 10.1 6.5 8.4 89 0.8 W 17 24 9 13 1022.1 1022.1 0.2
27/06:00am 10.4 7.6 8.7 89 0.8 W 13 19 7 10 1021.9 1021.9 0.2
27/05:30am 10.2 7.4 8.5 89 0.8 WSW 13 19 7 10 1021.7 1021.7 0.2
27/05:00am 10.3 7.1 8.6 89 0.8 W 15 20 8 11 1021.6 1021.6 0.2
27/04:30am 10.2 7.0 8.5 89 0.8 W 15 20 8 11 1021.3 1021.3 0.2
27/04:00am 10.2 7.0 8.3 88 0.9 WSW 15 22 8 12 1021.2 1021.2 0.2
27/03:30am 10.1 6.5 8.2 88 0.9 W 17 22 9 12 1021.1 1021.1 0.2
27/03:00am 10.2 6.6 8.3 88 0.9 W 17 22 9 12 1021.1 1021.1 0.2
27/02:30am 9.9 6.2 8.0 88 0.9 W 17 22 9 12 1020.9 1020.9 0.2
27/02:00am 10.1 6.4 8.0 87 1.0 W 17 20 9 11 1021.0 1021.0 0.2
27/01:30am 10.2 6.5 8.1 87 1.0 W 17 24 9 13 1020.9 1020.9 0.2
27/01:00am 10.4 7.1 8.2 86 1.1 W 15 20 8 11 1020.8 1020.8 0.2
27/12:30am 10.6 7.0 8.4 86 1.1 WSW 17 24 9 13 1021.0 1021.0 0.2
27/12:00am 10.5 6.9 8.3 86 1.1 W 17 24 9 13 1021.1 1021.1 0.2
 
Date/Time
EST
Tmp

°C
App
Tmp
°C
Dew
Point
°C
Rel
Hum
%
Delta-T

°C
Wind Press
QNH
hPa
Press
MSL
hPa
Rain
since
9 am
mm
Dir
 
Spd
km/h
Gust
km/h
Spd
kts
Gust
kts
26/11:30pm 10.0 7.0 7.8 86 1.1 W 13 19 7 10 1021.2 1021.2 0.2
26/11:00pm 10.3 7.3 7.9 85 1.2 WNW 13 19 7 10 1021.2 1021.2 0.2
26/10:30pm 10.5 6.7 7.7 83 1.3 W 17 22 9 12 1021.3 1021.3 0.2
26/10:00pm 11.2 7.1 7.9 80 1.6 W 19 28 10 15 1021.4 1021.4 0.2
26/09:30pm 11.4 7.6 7.7 78 1.8 W 17 24 9 13 1021.4 1021.4 0.2
26/09:00pm 11.3 7.4 7.0 75 2.0 W 17 22 9 12 1021.3 1021.3 0.2
26/08:30pm 11.8 7.5 7.1 73 2.3 WSW 19 24 10 13 1021.1 1021.1 0.2
26/08:00pm 12.0 7.1 7.1 72 2.3 WSW 22 32 12 17 1020.9 1020.9 0.2
26/07:30pm 11.9 8.1 7.6 75 2.1 WSW 17 24 9 13 1020.9 1020.9 0.2
26/07:00pm 12.0 7.9 7.7 75 2.1 WSW 19 26 10 14 1020.8 1020.8 0.2
26/06:30pm 12.4 8.1 7.7 73 2.3 WSW 20 28 11 15 1020.6 1020.6 0.2
26/06:00pm 12.7 7.2 7.6 71 2.5 WSW 26 41 14 22 1020.3 1020.3 0.2
26/05:30pm 13.2 8.0 7.4 68 2.8 WSW 24 35 13 19 1020.0 1020.0 0.2
26/05:00pm 13.5 7.9 7.3 66 3.0 WSW 26 39 14 21 1019.7 1019.6 0.2
26/04:30pm 13.9 9.6 7.7 66 3.1 SSW 20 32 11 17 1019.5 1019.4 0.2
26/04:00pm 14.5 10.4 8.5 67 3.0 SSW 20 28 11 15 1019.2 1019.1 0.2
26/03:30pm 14.2 9.7 8.4 68 2.9 SSW 22 28 12 15 1019.0 1018.9 0.2
26/03:00pm 14.3 10.1 8.3 67 3.0 SSW 20 32 11 17 1018.9 1018.8 0.2
26/02:30pm 14.5 9.8 7.8 64 3.3 SSW 22 32 12 17 1018.7 1018.6 0.2
26/02:00pm 14.9 10.3 8.2 64 3.4 SSW 22 32 12 17 1018.6 1018.5 0.2
26/01:30pm 15.2 11.2 8.2 63 3.5 SSW 19 24 10 13 1018.4 1018.3 0.2
26/01:00pm 14.3 9.1 8.7 69 2.8 SSW 26 33 14 18 1018.6 1018.5 0.2
26/12:30pm 14.8 9.9 8.3 65 3.3 SW 24 33 13 18 1018.7 1018.6 0.2
26/12:00pm 13.4 9.1 9.5 77 2.0 SW 22 33 12 18 1019.0 1018.9 0.2
26/11:30am 12.2 7.6 9.8 85 1.2 SW 24 35 13 19 1019.3 1019.2 0.2
26/11:00am 12.5 8.5 10.6 88 1.0 SW 22 28 12 15 1019.1 1019.0 0.2
26/10:32am 11.9 8.5 10.6 92 0.7 SW 19 28 10 15 1019.1 1019.0 0.2
26/10:30am 11.8 8.4 10.5 92 0.7 SW 19 28 10 15 1019.1 1019.0 0.2
26/10:23am 11.3 7.6 10.2 93 0.6 WSW 20 28 11 15 1019.1 1019.0 0.2
26/10:17am 11.2 7.5 10.1 93 0.6 WSW 20 28 11 15 1019.2 1019.1 0.2
26/10:00am 10.9 6.7 9.8 93 0.6 SW 22 32 12 17 1019.1 1019.0 0.2
26/09:51am 11.0 6.8 9.8 92 0.6 WSW 22 35 12 19 1019.2 1019.1 0.2
26/09:48am 11.0 7.2 9.8 92 0.6 SW 20 35 11 19 1019.1 1019.0 0.2
26/09:30am 10.8 7.5 9.7 93 0.6 SW 17 26 9 14 1019.1 1019.0 0.2
26/09:21am 10.6 6.7 9.5 93 0.6 WSW 20 30 11 16 1019.0 1018.9 0.2
26/09:00am 10.6 5.9 9.4 92 0.6 WSW 24 35 13 19 1018.9 1018.8 4.6
26/08:48am 10.4 6.7 9.5 94 0.5 WSW 19 30 10 16 1018.7 1018.6 4.6
26/08:30am 9.9 6.1 9.0 94 0.4 WSW 19 26 10 14 1018.6 1018.5 4.6
26/08:19am 9.9 6.1 9.0 94 0.4 WSW 19 30 10 16 1018.5 1018.4 4.6
26/08:11am 9.8 5.3 8.7 93 0.5 WSW 22 30 12 16 1018.3 1018.2 4.6
26/08:00am 9.8 5.9 8.7 93 0.5 WSW 19 24 10 13 1018.2 1018.1 4.6
26/07:44am 9.8 5.9 8.7 93 0.5 WSW 19 24 10 13 1018.0 1017.9 4.6
26/07:30am 9.7 5.6 8.6 93 0.5 WSW 20 28 11 15 1017.7 1017.6 4.6
26/07:00am 9.8 5.3 8.6 92 0.6 SW 22 33 12 18 1017.3 1017.2 4.6
26/06:53am 10.0 5.1 8.6 91 0.7 SW 24 35 13 19 1017.3 1017.2 4.4
26/06:30am 9.8 5.8 8.4 91 0.7 WSW 19 28 10 15 1016.9 1016.8 4.4
26/06:00am 9.7 6.0 8.1 90 0.8 WSW 17 24 9 13 1016.7 1016.6 4.4
26/05:47am 9.9 6.7 8.3 90 0.8 WSW 15 22 8 12 1016.6 1016.5 4.4
26/05:30am 10.0 6.0 8.4 90 0.8 WSW 19 26 10 14 1016.5 1016.4 4.4
26/05:28am 10.0 6.0 8.4 90 0.8 WSW 19 26 10 14 1016.5 1016.4 4.4
26/05:00am 10.0 5.9 8.6 91 0.7 WSW 20 28 11 15 1016.3 1016.2 4.4
26/04:30am 10.1 6.0 8.7 91 0.7 WSW 20 28 11 15 1015.9 1015.8 4.4
26/04:00am 10.1 5.6 8.5 90 0.8 WSW 22 30 12 16 1015.8 1015.7 4.4
26/03:30am 10.1 5.6 8.4 89 0.8 WSW 22 30 12 16 1015.5 1015.4 4.4
26/03:00am 10.8 6.3 8.4 85 1.2 WSW 22 30 12 16 1015.5 1015.4 4.4
26/02:30am 11.1 6.9 8.3 83 1.4 WSW 20 28 11 15 1015.5 1015.4 4.4
26/02:00am 11.6 7.9 7.9 78 1.8 WSW 17 28 9 15 1015.5 1015.4 4.4
26/01:30am 11.8 8.1 7.9 77 1.9 WSW 17 28 9 15 1015.5 1015.4 4.4
26/01:00am 11.9 7.3 8.0 77 1.9 WSW 22 32 12 17 1015.2 1015.1 4.4
26/12:30am 11.9 8.0 8.7 81 1.6 WSW 19 26 10 14 1014.9 1014.8 4.4
26/12:00am 11.9 7.9 9.1 83 1.4 WSW 20 28 11 15 1014.8 1014.7 4.4
 
Date/Time
EST
Tmp

°C
App
Tmp
°C
Dew
Point
°C
Rel
Hum
%
Delta-T

°C
Wind Press
QNH
hPa
Press
MSL
hPa
Rain
since
9 am
mm
Dir
 
Spd
km/h
Gust
km/h
Spd
kts
Gust
kts
25/11:30pm 11.9 7.7 9.6 86 1.2 WSW 22 30 12 16 1014.5 1014.4 4.4
25/11:00pm 12.2 9.3 9.8 85 1.2 WSW 15 22 8 12 1014.4 1014.3 4.4
25/10:30pm 12.6 8.8 9.1 79 1.8 SW 19 26 10 14 1014.3 1014.2 4.4
25/10:00pm 13.4 7.9 9.1 75 2.2 SSW 28 37 15 20 1014.0 1013.9 4.4
25/09:30pm 13.4 7.9 9.3 76 2.1 SSW 28 37 15 20 1013.7 1013.6 4.4
25/09:00pm 13.5 9.3 9.9 79 1.9 SSW 22 32 12 17 1013.5 1013.4 4.4
25/08:30pm 13.6 9.1 10.2 80 1.8 SSW 24 33 13 18 1013.2 1013.1 4.4
25/08:00pm 13.9 9.2 10.5 80 1.8 SSW 26 39 14 21 1012.6 1012.5 4.4
25/07:30pm 14.0 9.2 10.4 79 1.9 SSW 26 33 14 18 1012.4 1012.3 4.4
25/07:00pm 14.1 9.5 11.1 82 1.6 SSW 26 37 14 20 1012.0 1011.9 4.4
25/06:30pm 13.9 10.0 10.9 82 1.6 SSW 22 32 12 17 1011.5 1011.5 4.4
25/06:00pm 13.9 9.8 11.4 85 1.3 SSW 24 39 13 21 1011.0 1011.0 4.4
25/05:30pm 14.0 10.8 11.9 87 1.1 S 20 26 11 14 1010.5 1010.5 4.2
25/05:08pm 13.9 11.5 12.6 92 0.7 SSW 17 22 9 12 1010.2 1010.2 4.2
25/05:00pm 13.7 10.7 12.4 92 0.7 SSW 20 30 11 16 1010.2 1010.2 4.2
25/04:58pm 13.7 10.3 12.4 92 0.7 SSW 22 37 12 20 1010.2 1010.2 4.2
25/04:30pm 13.7 12.2 13.1 96 0.3 WSW 13 17 7 9 1009.9 1009.9 4.2
25/04:00pm 13.4 11.4 12.8 96 0.3 WSW 15 22 8 12 1009.7 1009.7 4.2
25/03:58pm 13.3 11.3 12.7 96 0.3 WSW 15 22 8 12 1009.7 1009.7 4.2
25/03:41pm 13.3 11.2 12.5 95 0.4 WSW 15 19 8 10 1009.6 1009.6 4.0
25/03:30pm 13.3 11.2 12.5 95 0.4 WSW 15 19 8 10 1009.5 1009.5 2.6
25/03:22pm 13.5 11.5 12.7 95 0.4 WSW 15 22 8 12 1009.4 1009.4 2.0
25/03:00pm 13.5 11.1 12.6 94 0.5 SW 17 22 9 12 1009.2 1009.2 1.0
25/02:30pm 13.7 11.2 12.3 91 0.8 SW 17 24 9 13 1008.9 1008.9 1.0
25/02:00pm 14.5 12.3 12.2 86 1.3 SW 15 20 8 11 1008.7 1008.7 0.6
25/01:58pm 14.5 12.3 12.0 85 1.4 SW 15 19 8 10 1008.7 1008.7 0.6
25/01:30pm 14.3 12.9 12.2 87 1.1 W 11 17 6 9 1008.5 1008.5 0.6
25/01:00pm 14.0 12.9 12.0 88 1.1 WNW 9 13 5 7 1008.6 1008.6 0.4
25/12:30pm 13.8 12.6 11.7 87 1.1 W 9 13 5 7 1008.8 1008.8 0.4
25/12:16pm 13.6 12.0 11.5 87 1.1 W 11 15 6 8 1008.8 1008.8 0.4
25/12:00pm 13.5 11.9 11.4 87 1.1 W 11 15 6 8 1008.9 1008.9 0.4
25/11:37am 13.2 11.5 11.3 88 1.0 W 11 17 6 9 1009.1 1009.1 0.4
25/11:30am 13.1 11.0 11.0 87 1.1 W 13 17 7 9 1009.0 1009.0 0.4
25/11:00am 12.7 10.5 10.9 89 0.9 WNW 13 15 7 8 1009.1 1009.1 0.4
25/10:30am 12.3 10.9 10.9 91 0.7 W 9 13 5 7 1009.2 1009.2 0.4
25/10:00am 11.7 9.4 10.6 93 0.6 W 13 17 7 9 1009.2 1009.2 0.4
25/09:30am 11.3 9.3 10.2 93 0.6 NW 11 15 6 8 1009.0 1009.0 0.4
25/09:00am 11.2 9.5 9.9 92 0.7 WNW 9 11 5 6 1008.6 1008.6 6.0
25/08:30am 10.9 9.5 9.7 92 0.6 WNW 7 9 4 5 1008.2 1008.2 6.0
25/08:00am 10.8 9.6 9.6 92 0.6 WSW 6 9 3 5 1007.9 1007.9 6.0
25/07:30am 10.8 10.7 9.6 92 0.6 CALM 0 0 0 0 1007.5 1007.5 6.0
25/07:00am 10.8 9.4 9.6 92 0.6 W 7 11 4 6 1007.3 1007.3 6.0
25/06:30am 10.9 9.2 9.7 92 0.6 W 9 15 5 8 1007.2 1007.2 6.0
25/06:00am 11.0 8.4 9.4 90 0.8 WNW 13 15 7 8 1006.9 1006.9 5.6
25/05:30am 11.2 8.6 9.5 89 0.9 W 13 17 7 9 1006.6 1006.6 5.2
25/05:00am 11.4 8.8 9.3 87 1.1 WSW 13 20 7 11 1006.4 1006.4 4.8
25/04:30am 11.8 9.4 10.0 89 0.9 W 13 17 7 9 1006.5 1006.5 4.6
25/04:15am 11.9 9.9 10.3 90 0.8 W 11 17 6 9 1006.3 1006.3 4.6
25/04:00am 12.1 9.9 10.8 92 0.7 W 13 17 7 9 1006.4 1006.4 4.6
25/03:30am 12.3 10.7 11.5 95 0.4 WSW 11 19 6 10 1006.0 1006.0 4.6
25/03:00am 12.7 11.6 12.1 96 0.3 NE 9 13 5 7 1006.1 1006.1 4.2
25/02:51am 12.7 11.6 12.1 96 0.3 ENE 9 11 5 6 1006.0 1006.0 4.2
25/02:30am 12.4 12.9 11.6 95 0.4 CALM 0 9 0 5 1006.2 1006.2 4.2
25/02:00am 12.5 13.0 11.7 95 0.4 CALM 0 0 0 0 1006.2 1006.2 4.2
25/01:30am 12.6 13.1 11.7 94 0.5 CALM 0 0 0 0 1006.2 1006.2 4.2
25/01:00am 12.8 13.4 11.9 94 0.5 CALM 0 0 0 0 1006.5 1006.5 3.8
25/12:56am 12.7 13.3 11.8 94 0.5 CALM 0 4 0 2 1006.6 1006.6 3.8
25/12:46am 12.7 12.1 11.8 94 0.5 N 6 6 3 3 1006.7 1006.7 3.8
25/12:30am 12.6 12.4 11.7 94 0.5 N 4 6 2 3 1006.6 1006.6 3.8
25/12:00am 12.6 11.7 11.5 93 0.6 N 7 9 4 5 1006.5 1006.5 3.8
 
Date/Time
EST
Tmp

°C
App
Tmp
°C
Dew
Point
°C
Rel
Hum
%
Delta-T

°C
Wind Press
QNH
hPa
Press
MSL
hPa
Rain
since
9 am
mm
Dir
 
Spd
km/h
Gust
km/h
Spd
kts
Gust
kts
24/11:30pm 12.6 11.9 11.3 92 0.7 WNW 6 9 3 5 1006.3 1006.3 3.6
24/11:00pm 12.8 12.9 11.4 91 0.7 WSW 2 7 1 4 1006.1 1006.1 3.6
24/10:30pm 13.0 13.4 11.4 90 0.8 CALM 0 7 0 4 1006.1 1006.1 3.6
24/10:00pm 13.1 11.0 11.3 89 1.0 W 13 19 7 10 1005.9 1005.9 3.2
24/09:53pm 13.1 11.0 11.3 89 1.0 W 13 19 7 10 1005.9 1005.9 3.2
24/09:34pm 13.4 10.0 11.3 87 1.1 WNW 20 28 11 15 1006.0 1006.0 2.4
24/09:30pm 13.5 10.1 11.4 87 1.1 WNW 20 28 11 15 1006.0 1006.0 1.8
24/09:21pm 13.7 10.4 11.6 87 1.1 WNW 20 28 11 15 1006.0 1006.0 1.0
24/09:02pm 14.2 9.2 11.0 81 1.7 WNW 28 39 15 21 1005.6 1005.6 0.6
24/09:00pm 14.7 10.9 11.3 80 1.8 WNW 22 39 12 21 1005.5 1005.5 0.0
24/08:30pm 15.9 15.2 11.9 77 2.2 S 7 9 4 5 1005.0 1005.0 0.0
24/08:00pm 15.8 15.2 11.8 77 2.2 S 6 9 3 5 1004.7 1004.7 0.0
24/07:30pm 16.3 16.8 11.7 74 2.5 CALM 0 0 0 0 1004.6 1004.6 0.0
24/07:00pm 16.5 16.9 11.4 72 2.8 CALM 0 0 0 0 1004.6 1004.6 0.0
24/06:30pm 17.1 16.5 11.6 70 3.0 S 6 7 3 4 1004.3 1004.3 0.0
24/06:00pm 17.7 16.1 11.5 67 3.4 S 11 15 6 8 1003.7 1003.7 0.0
24/05:30pm 18.4 17.5 11.2 63 3.9 SW 7 9 4 5 1003.3 1003.3 0.0
24/05:00pm 19.0 17.6 10.8 59 4.5 WNW 9 17 5 9 1003.1 1003.1 0.0
24/04:30pm 19.2 16.2 10.5 57 4.7 W 17 22 9 12 1003.1 1003.1 0.0
24/04:00pm 19.2 16.5 10.5 57 4.7 W 15 20 8 11 1002.8 1002.8 0.0
24/03:30pm 19.4 17.1 10.4 56 4.9 WSW 13 17 7 9 1002.7 1002.7 0.0
24/03:00pm 19.3 16.7 10.6 57 4.7 W 15 20 8 11 1002.9 1002.9 0.0
24/02:30pm 19.9 16.5 10.6 55 5.0 W 19 24 10 13 1002.9 1002.9 0.0
24/02:00pm 19.8 16.8 10.5 55 5.1 WNW 17 22 9 12 1003.1 1003.1 0.0
24/01:30pm 19.8 16.8 10.5 55 5.0 WNW 17 20 9 11 1003.2 1003.2 0.0
24/01:00pm 19.9 16.3 10.6 55 5.1 WNW 20 26 11 14 1003.3 1003.3 0.0
24/12:30pm 20.1 17.3 11.3 57 4.8 WNW 17 26 9 14 1003.6 1003.6 0.0
24/12:00pm 19.1 16.7 11.4 61 4.2 WNW 15 20 8 11 1004.1 1004.1 0.0
24/11:30am 19.1 17.2 11.7 62 4.1 NW 13 19 7 10 1004.6 1004.6 0.0
24/11:00am 18.7 17.8 12.7 68 3.4 NW 9 15 5 8 1004.8 1004.8 0.0
24/10:30am 17.5 16.6 12.6 73 2.7 NW 9 15 5 8 1004.9 1004.9 0.0
24/10:00am 16.4 16.3 13.3 82 1.7 N 6 9 3 5 1005.2 1005.2 0.0
24/09:30am 15.2 15.1 13.2 88 1.1 NNW 6 7 3 4 1005.4 1005.4 0.0
24/09:00am 14.5 14.2 13.4 93 0.6 NNW 7 9 4 5 1005.5 1005.5 0.0

Latest Capital City Observations: Canberra | Sydney | Melbourne | Brisbane | Adelaide | Perth | Hobart | Darwin

Other Formats:

Comma delimited format used in spreadsheet applications
http://www.bom.gov.au/fwo/IDV60901/IDV60901.94865.axf

JavaScript Object Notation format (JSON) in row-major order
http://www.bom.gov.au/fwo/IDV60901/IDV60901.94865.json